Time;durP1;ratioP1;P1;durP2;ratioP2;P2;SDS_P1;SDS_P2;PMS_P1;PMS_P2;Temp;Humidity;BMP_temperature;BMP_pressure;BME280_temperature;BME280_humidity;BME280_pressure;Samples;Min_cycle;Max_cycle;Signal;HPM_P1;HPM_P2
2022/07/03 00:01:43;;;;;;;2.6;2.1;;;;;;;17.61;93.10254;941.2766;;;;
2022/07/03 00:04:22;;;;;;;2.8;2.1;;;;;;;17.69;92.72559;941.3293;;;;
2022/07/03 00:07:02;;;;;;;2.5;2.2;;;;;;;17.69;92.59766;941.356;;;;
2022/07/03 00:09:31;;;;;;;3.4;2.3;;;;;;;17.75;92.06543;941.3986;;;;
2022/07/03 00:12:04;;;;;;;3.2;2.5;;;;;;;17.84;91.75879;941.3647;;;;
2022/07/03 00:14:34;;;;;;;3.2;2.4;;;;;;;17.75;92.13281;941.36;;;;
2022/07/03 00:16:58;;;;;;;2.4;1.9;;;;;;;17.74;91.99219;941.3424;;;;
2022/07/03 00:19:25;;;;;;;2.8;2;;;;;;;17.71;91.8125;941.2751;;;;
2022/07/03 00:21:50;;;;;;;3.2;1.9;;;;;;;17.78;91.20996;941.2614;;;;
2022/07/03 00:24:18;;;;;;;2.7;1.9;;;;;;;17.83;90.81543;941.3181;;;;
2022/07/03 00:26:43;;;;;;;2.5;2.3;;;;;;;17.76;91.4873;941.3413;;;;
2022/07/03 00:29:12;;;;;;;2;1.9;;;;;;;17.74;91.8291;941.3046;;;;
2022/07/03 00:31:38;;;;;;;2.3;2.1;;;;;;;17.76;91.47363;941.2286;;;;
2022/07/03 00:34:03;;;;;;;2.8;2;;;;;;;17.78;91.30469;941.2628;;;;
2022/07/03 00:36:29;;;;;;;3.4;2.3;;;;;;;17.75;91.27637;941.2745;;;;
2022/07/03 00:38:57;;;;;;;2.4;2.2;;;;;;;17.75;90.65918;941.2932;;;;
2022/07/03 00:41:22;;;;;;;3.8;2.2;;;;;;;17.81;90.76465;941.2456;;;;
2022/07/03 00:43:47;;;;;;;2.4;2.2;;;;;;;17.81;90.86914;941.3101;;;;
2022/07/03 00:46:12;;;;;;;2.5;2.3;;;;;;;17.79;91.02832;941.3555;;;;
2022/07/03 00:48:39;;;;;;;3.6;2.4;;;;;;;17.75;91.50781;941.3245;;;;
2022/07/03 00:51:03;;;;;;;2.4;2.2;;;;;;;17.76;91.90332;941.3759;;;;
2022/07/03 00:53:31;;;;;;;2.4;2.2;;;;;;;17.79;91.44629;941.378;;;;
2022/07/03 00:55:56;;;;;;;2.2;2;;;;;;;17.8;91.56445;941.3674;;;;
2022/07/03 00:58:24;;;;;;;2.3;2.1;;;;;;;17.85;90.98145;941.3557;;;;
2022/07/03 01:00:49;;;;;;;2.7;1.9;;;;;;;17.87;90.63672;941.3878;;;;
2022/07/03 01:03:14;;;;;;;2.3;2.1;;;;;;;17.9;90.35352;941.2608;;;;
2022/07/03 01:05:42;;;;;;;2.4;2.2;;;;;;;17.87;90.41797;941.3498;;;;
2022/07/03 01:08:07;;;;;;;2.6;2.4;;;;;;;17.86;90.61328;941.3402;;;;
2022/07/03 01:10:31;;;;;;;2.3;2.1;;;;;;;17.9;90.23633;941.3342;;;;
2022/07/03 01:12:57;;;;;;;2.6;2.4;;;;;;;17.92;90.02051;941.3748;;;;
2022/07/03 01:15:29;;;;;;;4.3;2.3;;;;;;;17.92;90.21777;941.3073;;;;
2022/07/03 01:17:54;;;;;;;2.3;2.1;;;;;;;17.98;90.24121;941.3531;;;;
2022/07/03 01:20:19;;;;;;;2.9;2.1;;;;;;;17.97;90.57617;941.3484;;;;
2022/07/03 01:22:45;;;;;;;2.5;2.3;;;;;;;18.05;90.29199;941.3225;;;;
2022/07/03 01:25:17;;;;;;;2.4;2.1;;;;;;;17.98;90.25293;941.2775;;;;
2022/07/03 01:27:46;;;;;;;3.4;2.3;;;;;;;17.83;91.34863;941.1716;;;;
2022/07/03 01:30:11;;;;;;;2.5;2.3;;;;;;;17.83;91.36035;941.2328;;;;
2022/07/03 01:32:38;;;;;;;2.2;2;;;;;;;17.69;92.02734;941.3053;;;;
2022/07/03 01:35:09;;;;;;;2.2;2;;;;;;;17.66;92.33496;941.1845;;;;
2022/07/03 01:37:39;;;;;;;2.5;2.2;;;;;;;17.72;91.99805;941.1381;;;;
2022/07/03 01:40:04;;;;;;;2.8;2.3;;;;;;;17.72;91.1875;941.1816;;;;
2022/07/03 01:42:29;;;;;;;2.6;2.1;;;;;;;17.67;92.30176;941.2109;;;;
2022/07/03 01:44:57;;;;;;;3.4;2.1;;;;;;;17.61;92.75488;941.2718;;;;
2022/07/03 01:47:22;;;;;;;2.7;2.2;;;;;;;17.52;93.57129;941.2512;;;;
2022/07/03 01:49:52;;;;;;;3.8;2.1;;;;;;;17.59;93.53809;941.2319;;;;
2022/07/03 01:52:17;;;;;;;2.4;2.2;;;;;;;17.68;92.74707;941.2256;;;;
2022/07/03 01:54:43;;;;;;;2.6;2.2;;;;;;;17.69;91.90137;941.2385;;;;
2022/07/03 01:57:09;;;;;;;2.4;2.1;;;;;;;17.7;91.72949;941.2253;;;;
2022/07/03 01:59:35;;;;;;;2.2;2;;;;;;;17.75;91.83301;941.2794;;;;
2022/07/03 02:02:01;;;;;;;2.7;2.3;;;;;;;17.66;92.81055;941.2249;;;;
2022/07/03 02:04:27;;;;;;;4.4;2.3;;;;;;;17.61;93.05664;941.2075;;;;
2022/07/03 02:06:53;;;;;;;3.1;2.4;;;;;;;17.63;92.83984;941.2662;;;;
2022/07/03 02:09:18;;;;;;;2.7;2.5;;;;;;;17.59;91.44922;941.3156;;;;
2022/07/03 02:11:43;;;;;;;3.6;2.4;;;;;;;17.59;91.42578;941.3567;;;;
2022/07/03 02:14:08;;;;;;;2.7;2.3;;;;;;;17.54;91.62598;941.342;;;;
2022/07/03 02:16:36;;;;;;;4.1;2.7;;;;;;;17.57;91.70313;941.3705;;;;
2022/07/03 02:19:02;;;;;;;2.7;2.3;;;;;;;17.57;92.4668;941.3714;;;;
2022/07/03 02:21:27;;;;;;;2.7;2.5;;;;;;;17.56;92.56934;941.3514;;;;
2022/07/03 02:23:52;;;;;;;2.4;2.2;;;;;;;17.4;93.17285;941.3426;;;;
2022/07/03 02:26:17;;;;;;;2.4;2.2;;;;;;;17.2;94.50098;941.343;;;;
2022/07/03 02:28:42;;;;;;;2.3;2.1;;;;;;;17.16;94.91797;941.3723;;;;
2022/07/03 02:31:10;;;;;;;2.6;2.4;;;;;;;17.19;93.67383;941.3463;;;;
2022/07/03 02:33:35;;;;;;;3.5;2.3;;;;;;;17.19;94.25488;941.3784;;;;
2022/07/03 02:36:03;;;;;;;2.7;2.3;;;;;;;17.24;94.13574;941.3775;;;;
2022/07/03 02:38:28;;;;;;;2.5;2.2;;;;;;;17.26;93.2832;941.3973;;;;
2022/07/03 02:40:54;;;;;;;3.8;2.3;;;;;;;17.21;92.94727;941.4355;;;;
2022/07/03 02:43:19;;;;;;;2.7;2.3;;;;;;;17.14;93.25879;941.3862;;;;
2022/07/03 02:45:44;;;;;;;3.7;2.4;;;;;;;17.04;94.50098;941.4073;;;;
2022/07/03 02:48:09;;;;;;;2.8;2.3;;;;;;;16.96;95.87305;941.4714;;;;
2022/07/03 02:50:34;;;;;;;2.3;2.1;;;;;;;17.08;95.22656;941.4601;;;;
2022/07/03 02:53:03;;;;;;;2.2;2;;;;;;;17.11;94.54883;941.4333;;;;
2022/07/03 02:55:30;;;;;;;2.4;2.1;;;;;;;17.18;93.88086;941.3826;;;;
2022/07/03 02:57:55;;;;;;;2.8;2.3;;;;;;;17.1;94.26855;941.4084;;;;
2022/07/03 03:00:20;;;;;;;4.4;2.4;;;;;;;17.11;93.96973;941.4228;;;;
2022/07/03 03:02:51;;;;;;;2.3;2.1;;;;;;;17.1;93.72363;941.423;;;;
2022/07/03 03:05:17;;;;;;;3.4;2.3;;;;;;;17.02;93.48633;941.423;;;;
2022/07/03 03:07:46;;;;;;;2.8;2.2;;;;;;;16.87;94.73047;941.5336;;;;
2022/07/03 03:10:17;;;;;;;4.2;2.4;;;;;;;16.53;97.00586;941.5775;;;;
2022/07/03 03:12:46;;;;;;;2.4;2.2;;;;;;;16.41;98.33594;941.5508;;;;
2022/07/03 03:15:13;;;;;;;2.4;2.2;;;;;;;16.62;97.16504;941.5762;;;;
2022/07/03 03:17:42;;;;;;;2.7;2.4;;;;;;;16.72;96.15625;941.5644;;;;
2022/07/03 03:20:07;;;;;;;2.4;2.2;;;;;;;16.78;95.48633;941.6523;;;;
2022/07/03 03:22:36;;;;;;;2.7;2.5;;;;;;;16.71;95.56348;941.6369;;;;
2022/07/03 03:25:01;;;;;;;2.7;2.3;;;;;;;16.7;95.81641;941.6763;;;;
2022/07/03 03:27:31;;;;;;;3;2.5;;;;;;;16.78;95.0332;941.6685;;;;
2022/07/03 03:29:57;;;;;;;2.6;2.4;;;;;;;16.87;94.47559;941.7371;;;;
2022/07/03 03:32:22;;;;;;;2.5;2.3;;;;;;;16.85;94.5752;941.7863;;;;
2022/07/03 03:34:49;;;;;;;2.3;2.1;;;;;;;16.86;93.08105;941.8289;;;;
2022/07/03 03:37:14;;;;;;;2.8;2.6;;;;;;;16.89;92.61426;941.7852;;;;
2022/07/03 03:39:44;;;;;;;3.6;2.1;;;;;;;16.94;92.49805;941.8836;;;;
2022/07/03 03:42:09;;;;;;;3.8;2.4;;;;;;;16.94;93.12109;941.9456;;;;
2022/07/03 03:44:35;;;;;;;3.2;2.3;;;;;;;16.87;93.55957;942.0017;;;;
2022/07/03 03:47:01;;;;;;;2.4;2.2;;;;;;;16.87;93.69922;941.91;;;;
2022/07/03 03:49:27;;;;;;;2.4;2.2;;;;;;;16.84;93.64453;941.9456;;;;
2022/07/03 03:51:52;;;;;;;2.4;2.2;;;;;;;16.8;94.08887;942.0261;;;;
2022/07/03 03:54:18;;;;;;;2.6;2.4;;;;;;;16.76;94;942.1253;;;;
2022/07/03 03:56:43;;;;;;;2.7;2.5;;;;;;;16.61;94.53418;942.1733;;;;
2022/07/03 03:59:12;;;;;;;2.6;2.3;;;;;;;16.58;94.97852;942.1222;;;;
2022/07/03 04:02:36;;;;;;;2.7;2.5;;;;;;;16.67;94.43262;942.2089;;;;
2022/07/03 04:05:07;;;;;;;2.4;2.2;;;;;;;16.66;94.84766;942.1822;;;;
2022/07/03 04:07:32;;;;;;;2.4;2.2;;;;;;;16.78;94.59277;942.1992;;;;
2022/07/03 04:09:58;;;;;;;2.5;2.1;;;;;;;16.74;94.05371;942.1939;;;;
2022/07/03 04:12:23;;;;;;;2.4;2.1;;;;;;;16.79;94.52734;942.2249;;;;
2022/07/03 04:14:50;;;;;;;2.4;2.2;;;;;;;16.96;93.69336;942.1563;;;;
2022/07/03 04:17:15;;;;;;;2.7;2;;;;;;;16.69;94.49414;942.1035;;;;
2022/07/03 04:19:40;;;;;;;2.4;2.2;;;;;;;16.68;94.58496;942.1694;;;;
2022/07/03 04:22:10;;;;;;;2.7;2.4;;;;;;;16.62;94.62891;942.1439;;;;
2022/07/03 04:24:33;;;;;;;2.2;2;;;;;;;16.6;95.20215;942.1333;;;;
2022/07/03 04:26:58;;;;;;;3.4;2.2;;;;;;;16.77;94.00195;942.0995;;;;
2022/07/03 04:29:25;;;;;;;2.6;2;;;;;;;16.87;93.31641;942.0934;;;;
2022/07/03 04:31:51;;;;;;;2.7;2.4;;;;;;;16.89;93.69141;942.1487;;;;
2022/07/03 04:34:18;;;;;;;2.4;2.2;;;;;;;16.9;92.84766;942.1301;;;;
2022/07/03 04:36:43;;;;;;;4.5;2.3;;;;;;;16.81;93.25488;942.1306;;;;
2022/07/03 04:39:11;;;;;;;2.3;2.1;;;;;;;16.66;94.16406;942.076;;;;
2022/07/03 04:41:41;;;;;;;2.6;2.4;;;;;;;16.66;94.71973;942.0851;;;;
2022/07/03 04:44:06;;;;;;;3.3;2.4;;;;;;;16.69;95.08496;942.1219;;;;
2022/07/03 04:46:33;;;;;;;2.9;2.1;;;;;;;16.77;94.70898;942.0561;;;;
2022/07/03 04:48:58;;;;;;;2.4;2.2;;;;;;;16.78;94.19922;942.0955;;;;
2022/07/03 04:51:28;;;;;;;2.3;2.1;;;;;;;16.8;94.16992;942.1661;;;;
2022/07/03 04:53:54;;;;;;;2.6;2.4;;;;;;;16.56;95.25195;942.0813;;;;
2022/07/03 04:56:20;;;;;;;2.7;2.2;;;;;;;16.58;95.58203;942.0634;;;;
2022/07/03 04:58:45;;;;;;;2.6;2.4;;;;;;;16.79;94.64453;942.1348;;;;
2022/07/03 05:01:13;;;;;;;3.7;2.1;;;;;;;16.9;93.82031;942.188;;;;
2022/07/03 05:03:38;;;;;;;2.7;2.3;;;;;;;16.97;93.97559;942.1295;;;;
2022/07/03 05:06:07;;;;;;;2.5;2.3;;;;;;;17.1;93.96777;942.1037;;;;
2022/07/03 05:08:32;;;;;;;3.6;2;;;;;;;18.15;92.06543;942.0795;;;;
2022/07/03 05:11:00;;;;;;;2.9;1.9;;;;;;;19.43;84.25879;942.0703;;;;
2022/07/03 05:13:24;;;;;;;2;1.5;;;;;;;20.96;77.66309;942.0586;;;;
2022/07/03 05:15:57;;;;;;;1.6;1.5;;;;;;;20.9;74.18066;942.1175;;;;
2022/07/03 05:18:26;;;;;;;2.9;1.4;;;;;;;20.73;74.70117;942.0978;;;;
2022/07/03 05:20:51;;;;;;;1.5;1.4;;;;;;;21.11;74.99902;942.0988;;;;
2022/07/03 05:23:17;;;;;;;1.5;1.4;;;;;;;23.2;67.39844;942.0522;;;;
2022/07/03 05:25:42;;;;;;;1.5;1.3;;;;;;;24.27;62.55273;942.0735;;;;
2022/07/03 05:28:09;;;;;;;1.5;1.4;;;;;;;24.48;61.55762;942.0628;;;;
2022/07/03 05:30:34;;;;;;;1.4;1.3;;;;;;;24.02;62.50684;942.0364;;;;
2022/07/03 05:33:01;;;;;;;1.8;1.3;;;;;;;24.71;61.58887;942.033;;;;
2022/07/03 05:35:27;;;;;;;2.8;1.3;;;;;;;24.19;62.75488;942.0361;;;;
2022/07/03 05:37:54;;;;;;;1.4;1.3;;;;;;;24.9;60.57715;942.0275;;;;
2022/07/03 05:40:19;;;;;;;1.6;1.5;;;;;;;25.17;59.58789;942.0273;;;;
2022/07/03 05:42:46;;;;;;;1.6;1.2;;;;;;;26.77;55.01367;941.9647;;;;
2022/07/03 05:45:12;;;;;;;1.4;1.3;;;;;;;25.66;56.82715;941.9518;;;;
2022/07/03 05:47:39;;;;;;;1.5;1.3;;;;;;;26.68;54.87207;941.9387;;;;
2022/07/03 05:50:04;;;;;;;2.2;1.4;;;;;;;27.28;53.74707;941.9917;;;;
2022/07/03 05:52:35;;;;;;;3.2;1.2;;;;;;;27.85;50.8125;941.9899;;;;
2022/07/03 05:55:07;;;;;;;1.5;1.4;;;;;;;28.15;50.78613;941.972;;;;
2022/07/03 05:57:38;;;;;;;1.5;1.4;;;;;;;28.78;48.10938;941.9758;;;;
2022/07/03 06:00:06;;;;;;;1.4;1.3;;;;;;;28.17;49.26758;941.9419;;;;
2022/07/03 06:02:31;;;;;;;3.1;1.4;;;;;;;27.75;50.41992;941.8815;;;;
2022/07/03 06:04:59;;;;;;;1.4;1.3;;;;;;;27.59;50.36719;941.942;;;;
2022/07/03 06:07:24;;;;;;;1.6;1.2;;;;;;;27.76;50.91992;941.8914;;;;
2022/07/03 06:09:53;;;;;;;1.4;1.3;;;;;;;27.76;50.49219;941.9063;;;;
2022/07/03 06:12:18;;;;;;;1.8;1.3;;;;;;;28.87;48.26172;941.9821;;;;
2022/07/03 06:14:46;;;;;;;1.3;1.3;;;;;;;29.75;46.28027;941.9331;;;;
2022/07/03 06:17:11;;;;;;;1.6;1.2;;;;;;;29.73;46.56445;941.8883;;;;
2022/07/03 06:19:39;;;;;;;1.1;1.1;;;;;;;30.42;45.49023;941.7659;;;;
2022/07/03 06:22:05;;;;;;;1.6;1.3;;;;;;;30.91;42.86035;941.7971;;;;
2022/07/03 06:24:33;;;;;;;1.2;1.2;;;;;;;30.73;43.09473;941.7992;;;;
2022/07/03 06:26:58;;;;;;;1.8;1.2;;;;;;;30.7;43.41406;941.8153;;;;
2022/07/03 06:29:28;;;;;;;1.6;1.3;;;;;;;31.97;41.23535;941.8134;;;;
2022/07/03 06:31:59;;;;;;;1.4;1.3;;;;;;;31.95;40.96875;941.7822;;;;
2022/07/03 06:34:24;;;;;;;1.3;1.2;;;;;;;31.85;40.39746;941.7548;;;;
2022/07/03 06:36:51;;;;;;;1.5;1.2;;;;;;;32.09;41.18555;941.7112;;;;
2022/07/03 06:39:16;;;;;;;1.3;1.2;;;;;;;32.58;41.73535;941.7191;;;;
2022/07/03 06:41:47;;;;;;;1.5;1.3;;;;;;;33.01;38.43457;941.7136;;;;
2022/07/03 06:44:16;;;;;;;1.5;1.4;;;;;;;33.13;39.64648;941.7092;;;;
2022/07/03 06:46:46;;;;;;;1.9;1.3;;;;;;;33.63;37.42871;941.6856;;;;
2022/07/03 06:49:16;;;;;;;1.3;1.2;;;;;;;33.96;37.94922;941.6656;;;;
2022/07/03 06:51:41;;;;;;;1.4;1.3;;;;;;;34.21;36.81348;941.6334;;;;
2022/07/03 06:54:12;;;;;;;1.3;1.1;;;;;;;31.52;40.85938;941.6267;;;;
2022/07/03 06:56:44;;;;;;;1.5;1.4;;;;;;;34.32;37.75098;941.5984;;;;
2022/07/03 06:59:15;;;;;;;1.2;1.1;;;;;;;33.2;37.62207;941.6099;;;;
2022/07/03 07:01:45;;;;;;;1.5;1.2;;;;;;;33.72;38.49512;941.6686;;;;
2022/07/03 07:04:10;;;;;;;2.1;1.3;;;;;;;34.72;36.84375;941.5995;;;;
2022/07/03 07:06:35;;;;;;;2.9;1.8;;;;;;;33.69;36.44727;941.593;;;;
2022/07/03 07:09:01;;;;;;;1.2;1.1;;;;;;;33.59;37.58203;941.4855;;;;
2022/07/03 07:11:26;;;;;;;1.4;1.3;;;;;;;33.37;39.41602;941.5689;;;;
2022/07/03 07:13:54;;;;;;;1.9;1.3;;;;;;;32.98;37.33887;941.533;;;;
2022/07/03 07:16:25;;;;;;;1.2;1.2;;;;;;;32.3;38.49512;941.548;;;;
2022/07/03 07:18:52;;;;;;;1.3;1.2;;;;;;;33.42;38.08496;941.5021;;;;
2022/07/03 07:21:17;;;;;;;1.2;1.2;;;;;;;35.46;36.45703;941.5368;;;;
2022/07/03 07:23:47;;;;;;;2.8;1.5;;;;;;;35.43;34.64355;941.4899;;;;
2022/07/03 07:26:18;;;;;;;2.5;1.4;;;;;;;36.88;33.44434;941.4846;;;;
2022/07/03 07:28:42;;;;;;;1.1;1.1;;;;;;;35.88;32.68262;941.5053;;;;
2022/07/03 07:31:09;;;;;;;2.1;1.2;;;;;;;36.65;31.16406;941.514;;;;
2022/07/03 07:33:34;;;;;;;1.3;1.2;;;;;;;35.91;32.47852;941.4824;;;;
2022/07/03 07:36:01;;;;;;;1.1;1.1;;;;;;;33.32;35.01172;941.515;;;;
2022/07/03 07:38:26;;;;;;;1.2;1.2;;;;;;;36.14;32.27734;941.4525;;;;
2022/07/03 07:40:54;;;;;;;1.4;1.3;;;;;;;36.84;31.3457;941.4998;;;;
2022/07/03 07:43:20;;;;;;;1.1;1.1;;;;;;;37.56;31.52832;941.4886;;;;
2022/07/03 07:45:45;;;;;;;2.1;1.3;;;;;;;37.03;32.29199;941.5327;;;;
2022/07/03 07:48:12;;;;;;;1.1;1.1;;;;;;;37.4;32.69336;941.5371;;;;
2022/07/03 07:50:37;;;;;;;1.4;1.3;;;;;;;37.12;33.52246;941.5452;;;;
2022/07/03 07:53:08;;;;;;;1.3;1.3;;;;;;;37.33;32.09473;941.5226;;;;
2022/07/03 07:55:38;;;;;;;1.1;1.1;;;;;;;37.04;32.93457;941.5034;;;;
2022/07/03 07:58:03;;;;;;;1.2;1.2;;;;;;;37.22;33.74805;941.4957;;;;
2022/07/03 08:00:34;;;;;;;1.2;1.2;;;;;;;36.58;33.79785;941.4664;;;;
2022/07/03 08:05:39;;;;;;;2.5;1.2;;;;;;;35.18;36.03613;941.4917;;;;
2022/07/03 08:08:01;;;;;;;1.6;1.3;;;;;;;34.65;36.5957;941.4949;;;;
2022/07/03 08:10:32;;;;;;;1.4;1.3;;;;;;;34.57;38.20508;941.5006;;;;
2022/07/03 08:12:57;;;;;;;1.1;1.1;;;;;;;35.77;35.82813;941.4878;;;;
2022/07/03 08:15:37;;;;;;;1;1;;;;;;;36.31;34.10352;941.4598;;;;
2022/07/03 08:18:03;;;;;;;2.1;1.2;;;;;;;35.5;35.10645;941.4942;;;;
2022/07/03 08:20:29;;;;;;;1;1;;;;;;;35.12;36.53809;941.4662;;;;
2022/07/03 08:22:54;;;;;;;1.2;1;;;;;;;35.26;33.43555;941.4648;;;;
2022/07/03 08:25:22;;;;;;;1.1;1.1;;;;;;;35.7;33.59961;941.4647;;;;
2022/07/03 08:27:47;;;;;;;1.2;0.9;;;;;;;33.48;34.23047;941.4913;;;;
2022/07/03 08:30:17;;;;;;;1.5;1.2;;;;;;;33.78;38.54785;941.4869;;;;
2022/07/03 08:32:47;;;;;;;1.2;1.1;;;;;;;35.34;34.44238;941.4658;;;;
2022/07/03 08:35:21;;;;;;;1.3;1.2;;;;;;;35.31;33.82422;941.424;;;;
2022/07/03 08:37:47;;;;;;;1.1;1;;;;;;;36;31.69922;941.4336;;;;
2022/07/03 08:40:11;;;;;;;1.5;1.3;;;;;;;36.38;31.6416;941.4144;;;;
2022/07/03 08:42:43;;;;;;;1.7;1.2;;;;;;;36.02;31.38672;941.3947;;;;
2022/07/03 08:45:13;;;;;;;1.2;1.1;;;;;;;37.09;30.64844;941.403;;;;
2022/07/03 08:47:39;;;;;;;1;1;;;;;;;38.84;27.3584;941.3928;;;;
2022/07/03 08:50:07;;;;;;;1.3;1.1;;;;;;;38.47;29.71875;941.382;;;;
2022/07/03 08:52:32;;;;;;;1.3;1.2;;;;;;;38.67;28.27246;941.3847;;;;
2022/07/03 08:54:59;;;;;;;1.2;1.1;;;;;;;37.47;29.95801;941.2977;;;;
2022/07/03 08:57:22;;;;;;;1.1;1.1;;;;;;;38.35;29.97852;941.3419;;;;
2022/07/03 08:59:48;;;;;;;1.3;1.1;;;;;;;37.99;29.91895;941.302;;;;
2022/07/03 09:02:13;;;;;;;1.2;1.1;;;;;;;39.03;28.05176;941.2537;;;;
2022/07/03 09:04:44;;;;;;;0.9;0.9;;;;;;;39.03;26.00684;941.2109;;;;
2022/07/03 09:07:15;;;;;;;2.3;1;;;;;;;39.58;25.57422;941.1945;;;;
2022/07/03 09:09:40;;;;;;;1.2;1;;;;;;;38.38;26.03027;941.213;;;;
2022/07/03 09:12:05;;;;;;;1.4;0.9;;;;;;;38.22;28.01465;941.1584;;;;
2022/07/03 09:14:40;;;;;;;0.8;0.8;;;;;;;37.83;28.87695;941.1707;;;;
2022/07/03 09:17:05;;;;;;;0.9;0.9;;;;;;;38.68;26.83789;941.1362;;;;
2022/07/03 09:19:32;;;;;;;1;1;;;;;;;39.11;27.14258;941.1458;;;;
2022/07/03 09:22:00;;;;;;;1;0.8;;;;;;;37.86;27.11914;941.1044;;;;
2022/07/03 09:24:25;;;;;;;1.8;0.8;;;;;;;38.34;26.62402;941.1492;;;;
2022/07/03 09:26:51;;;;;;;0.9;0.9;;;;;;;37.96;28.45996;941.1208;;;;
2022/07/03 09:29:20;;;;;;;2.4;1.1;;;;;;;37.66;28.49023;941.1194;;;;
2022/07/03 09:31:45;;;;;;;1.4;0.8;;;;;;;38.21;26.95703;941.1205;;;;
2022/07/03 09:34:12;;;;;;;1;0.9;;;;;;;37.13;30.89258;941.0471;;;;
2022/07/03 09:36:37;;;;;;;1;0.9;;;;;;;36.47;31.16309;941.0403;;;;
2022/07/03 09:39:21;;;;;;;0.6;0.6;;;;;;;35.19;31.47461;940.9908;;;;
2022/07/03 09:41:46;;;;;;;0.9;0.9;;;;;;;34.8;32.8584;940.9777;;;;
2022/07/03 09:44:13;;;;;;;0.8;0.8;;;;;;;34.12;33.83301;940.983;;;;
2022/07/03 09:46:42;;;;;;;0.7;0.7;;;;;;;33.36;33.62012;940.9877;;;;
2022/07/03 09:49:09;;;;;;;2.1;1;;;;;;;32.78;37.34766;940.9864;;;;
2022/07/03 09:51:41;;;;;;;1.6;0.9;;;;;;;32.6;37.5957;940.9467;;;;
2022/07/03 09:54:08;;;;;;;1;1;;;;;;;32.37;39.49609;940.9408;;;;
2022/07/03 09:56:33;;;;;;;2.9;1;;;;;;;32.53;36.73828;940.968;;;;
2022/07/03 09:58:58;;;;;;;1.5;0.9;;;;;;;33.21;34.28223;940.9514;;;;
2022/07/03 10:01:28;;;;;;;0.8;0.8;;;;;;;32.84;35.56348;940.9199;;;;
2022/07/03 10:03:53;;;;;;;0.8;0.8;;;;;;;33.16;35.85254;940.8567;;;;
2022/07/03 10:06:21;;;;;;;1.3;1.2;;;;;;;33.02;35.90234;940.8688;;;;
2022/07/03 10:08:46;;;;;;;0.8;0.8;;;;;;;33.13;34.97266;940.8694;;;;
2022/07/03 10:11:11;;;;;;;2.4;1.1;;;;;;;32.89;35.92773;940.8489;;;;
2022/07/03 10:13:37;;;;;;;1.1;1;;;;;;;32.33;35.67969;940.8715;;;;
2022/07/03 10:16:03;;;;;;;2.3;1.1;;;;;;;32.32;37.74121;940.8392;;;;
2022/07/03 10:18:34;;;;;;;1.2;1.1;;;;;;;32.25;36.4043;940.79;;;;
2022/07/03 10:20:59;;;;;;;2;1.4;;;;;;;32.12;37.125;940.7558;;;;
2022/07/03 10:23:33;;;;;;;1;1;;;;;;;32.06;37.44336;940.7447;;;;
2022/07/03 10:25:58;;;;;;;2.5;1;;;;;;;31.4;39.42285;940.7397;;;;
2022/07/03 10:28:23;;;;;;;1;0.8;;;;;;;31.77;36.91699;940.6767;;;;
2022/07/03 10:30:48;;;;;;;0.7;0.7;;;;;;;31.6;38.35156;940.645;;;;
2022/07/03 10:33:16;;;;;;;1.2;1;;;;;;;31.22;40.07813;940.6387;;;;
2022/07/03 10:35:41;;;;;;;1.2;1;;;;;;;31.13;40.17773;940.6163;;;;
2022/07/03 10:38:10;;;;;;;0.8;0.8;;;;;;;30.85;40.35645;940.6445;;;;
2022/07/03 10:45:26;;;;;;;2.4;0.9;;;;;;;30.81;43.18555;940.6376;;;;
2022/07/03 10:47:51;;;;;;;1.4;1.1;;;;;;;31.02;42.99023;940.5945;;;;
2022/07/03 10:50:20;;;;;;;1.5;1;;;;;;;30.74;40.88477;940.5404;;;;
2022/07/03 10:52:45;;;;;;;2.3;1;;;;;;;30.76;41.69922;940.4462;;;;
2022/07/03 10:55:12;;;;;;;0.8;0.8;;;;;;;30.25;41.47266;940.4817;;;;
2022/07/03 10:57:38;;;;;;;0.9;0.9;;;;;;;30.32;42.45801;940.465;;;;
2022/07/03 11:00:13;;;;;;;1.1;0.9;;;;;;;30.32;41.45605;940.4647;;;;
2022/07/03 11:02:42;;;;;;;1.5;1.4;;;;;;;30.47;40.33496;940.4659;;;;
2022/07/03 11:05:07;;;;;;;1.2;0.9;;;;;;;30.43;41.83594;940.4543;;;;
2022/07/03 11:07:34;;;;;;;1.8;1.1;;;;;;;30.23;43.9668;940.3558;;;;
2022/07/03 11:10:01;;;;;;;2.6;1.3;;;;;;;30.24;42.21289;940.3982;;;;
2022/07/03 11:12:27;;;;;;;1.3;1.2;;;;;;;30.35;41.57715;940.3752;;;;
2022/07/03 11:14:54;;;;;;;2.8;1.4;;;;;;;30.03;43.91016;940.3717;;;;
2022/07/03 11:17:22;;;;;;;1.2;1;;;;;;;30.32;41.47949;940.2967;;;;
2022/07/03 11:20:23;;;;;;;1;0.8;;;;;;;30.49;41.81836;940.32;;;;
2022/07/03 11:23:13;;;;;;;1.1;0.9;;;;;;;30.51;41.37793;940.3137;;;;
2022/07/03 11:25:39;;;;;;;2;0.9;;;;;;;29.97;45.01367;940.3155;;;;
2022/07/03 11:28:04;;;;;;;3.5;1.4;;;;;;;30.29;43.88867;940.3066;;;;
2022/07/03 11:30:32;;;;;;;0.9;0.8;;;;;;;30.63;39.84766;940.2307;;;;
2022/07/03 11:33:00;;;;;;;1;0.9;;;;;;;30.8;42.02539;940.2397;;;;
2022/07/03 11:35:23;;;;;;;0.8;0.8;;;;;;;30.58;40.82227;940.1854;;;;
2022/07/03 11:37:51;;;;;;;0.8;0.8;;;;;;;29.89;41.24902;940.1997;;;;
2022/07/03 11:40:20;;;;;;;1.7;1.3;;;;;;;29.87;42.1416;940.158;;;;
2022/07/03 11:42:48;;;;;;;1.2;1.1;;;;;;;29.82;43.24512;940.1569;;;;
2022/07/03 11:45:16;;;;;;;2.5;1;;;;;;;29.94;41.18164;940.0651;;;;
2022/07/03 11:47:49;;;;;;;1.4;1.3;;;;;;;30.23;41.63867;940.0583;;;;
2022/07/03 11:50:16;;;;;;;1.8;1.2;;;;;;;30.37;41.75781;940.0698;;;;
2022/07/03 11:52:47;;;;;;;1.6;1.1;;;;;;;30.28;42.24023;940.0916;;;;
2022/07/03 11:55:24;;;;;;;1.2;1;;;;;;;30.08;42.63867;940.0212;;;;
2022/07/03 11:57:48;;;;;;;1.1;1;;;;;;;29.95;41.18359;939.9919;;;;
2022/07/03 12:00:19;;;;;;;1.3;1.1;;;;;;;29.72;42.35449;940.0135;;;;
2022/07/03 12:02:45;;;;;;;0.8;0.8;;;;;;;29.9;42.8125;940.0092;;;;
2022/07/03 12:05:10;;;;;;;1.3;0.7;;;;;;;30.25;41.47363;939.9785;;;;
2022/07/03 12:07:41;;;;;;;1.7;0.9;;;;;;;30.57;41.80078;939.9533;;;;
2022/07/03 12:10:14;;;;;;;0.9;0.9;;;;;;;30.61;39.58203;939.9187;;;;
2022/07/03 12:12:47;;;;;;;1;0.9;;;;;;;30.29;41.47656;940.0058;;;;
2022/07/03 12:15:20;;;;;;;4.7;1.2;;;;;;;30.02;41.72656;939.9929;;;;
2022/07/03 12:17:45;;;;;;;1.6;1.3;;;;;;;30.29;41.73926;939.9927;;;;
2022/07/03 12:20:18;;;;;;;1.5;1;;;;;;;30.36;40.98145;940.0159;;;;
2022/07/03 12:22:48;;;;;;;2.1;1.1;;;;;;;30.43;42.02637;940.0287;;;;
2022/07/03 12:25:14;;;;;;;0.8;0.8;;;;;;;30.55;40.90332;939.9914;;;;
2022/07/03 12:27:38;;;;;;;1.7;0.9;;;;;;;30.49;41.50684;939.9379;;;;
2022/07/03 12:30:07;;;;;;;1.2;0.8;;;;;;;30.55;42.75488;939.9604;;;;
2022/07/03 12:32:33;;;;;;;0.9;0.9;;;;;;;30.19;44.04492;940.0295;;;;
2022/07/03 12:34:58;;;;;;;1;0.9;;;;;;;29.61;43.10742;939.9266;;;;
2022/07/03 12:37:26;;;;;;;1.1;0.9;;;;;;;29.49;45.35938;939.9958;;;;
2022/07/03 12:39:52;;;;;;;0.6;0.6;;;;;;;29.9;41.50098;939.9294;;;;
2022/07/03 12:42:17;;;;;;;1.2;0.7;;;;;;;30.02;41.59473;939.9377;;;;
2022/07/03 12:44:42;;;;;;;1.2;0.9;;;;;;;30.35;40.66992;939.9978;;;;
2022/07/03 12:47:12;;;;;;;0.8;0.8;;;;;;;30.39;39.75391;939.9071;;;;
2022/07/03 12:49:38;;;;;;;1.3;1;;;;;;;30.41;40.61523;939.8153;;;;
2022/07/03 12:52:03;;;;;;;1.1;0.9;;;;;;;30.47;41.27832;939.863;;;;
2022/07/03 12:54:28;;;;;;;0.8;0.6;;;;;;;30.61;40.17969;939.884;;;;
2022/07/03 12:56:53;;;;;;;0.9;0.9;;;;;;;30.72;38.43262;939.8649;;;;
2022/07/03 12:59:18;;;;;;;1.2;0.6;;;;;;;30.58;40.28418;939.8431;;;;
2022/07/03 13:01:44;;;;;;;1.1;0.7;;;;;;;30.35;42.37793;939.7954;;;;
2022/07/03 13:04:14;;;;;;;1.6;0.9;;;;;;;30.21;41.81641;939.8148;;;;
2022/07/03 13:06:34;;;;;;;0.8;0.8;;;;;;;30.26;39.20605;939.8513;;;;
2022/07/03 13:09:04;;;;;;;0.8;0.8;;;;;;;30.33;39.96387;939.8542;;;;
2022/07/03 13:11:29;;;;;;;0.7;0.7;;;;;;;30.4;41.22363;939.7822;;;;
2022/07/03 13:13:57;;;;;;;5;1.4;;;;;;;30.5;41.79492;939.8064;;;;
2022/07/03 13:16:27;;;;;;;1.2;0.9;;;;;;;30.64;38.42578;939.7792;;;;
2022/07/03 13:18:57;;;;;;;2.2;0.7;;;;;;;30.71;38.07324;939.7531;;;;
2022/07/03 13:21:22;;;;;;;2.2;0.9;;;;;;;30.76;39.99023;939.7519;;;;
2022/07/03 13:23:49;;;;;;;1.6;1.2;;;;;;;30.92;38.39063;939.7515;;;;
2022/07/03 13:26:14;;;;;;;0.8;0.8;;;;;;;31.08;37.54199;939.7147;;;;
2022/07/03 13:28:39;;;;;;;0.8;0.8;;;;;;;31.13;37.15137;939.7523;;;;
2022/07/03 13:31:07;;;;;;;1.2;0.9;;;;;;;30.99;37.71387;939.7206;;;;
2022/07/03 13:33:32;;;;;;;2;0.8;;;;;;;30.65;42.64453;939.7288;;;;
2022/07/03 13:35:58;;;;;;;1.2;0.9;;;;;;;30.61;39.39063;939.6944;;;;
2022/07/03 13:38:23;;;;;;;3.3;1;;;;;;;30.73;40.27441;939.7431;;;;
2022/07/03 13:40:54;;;;;;;1.5;1;;;;;;;30.64;41.62793;939.7406;;;;
2022/07/03 13:43:19;;;;;;;0.9;0.9;;;;;;;30.7;39.70996;939.7238;;;;
2022/07/03 13:45:45;;;;;;;0.8;0.8;;;;;;;30.55;40.24609;939.7222;;;;
2022/07/03 13:48:13;;;;;;;0.7;0.7;;;;;;;30.75;38.125;939.7134;;;;
2022/07/03 13:50:38;;;;;;;0.8;0.8;;;;;;;30.87;38.49414;939.6247;;;;
2022/07/03 13:53:07;;;;;;;3.2;1.1;;;;;;;30.76;41.35254;939.5845;;;;
2022/07/03 13:55:35;;;;;;;0.9;0.9;;;;;;;30.7;41.84863;939.6149;;;;
2022/07/03 13:58:06;;;;;;;1.2;0.9;;;;;;;30.8;39.0127;939.6311;;;;
2022/07/03 14:00:28;;;;;;;1.2;0.7;;;;;;;30.8;38.51172;939.5808;;;;
2022/07/03 14:02:59;;;;;;;0.8;0.8;;;;;;;30.88;37.40625;939.5403;;;;
2022/07/03 14:05:28;;;;;;;1.1;0.9;;;;;;;30.86;39.04199;939.5309;;;;
2022/07/03 14:07:54;;;;;;;0.8;0.8;;;;;;;30.84;37.21191;939.501;;;;
2022/07/03 14:10:21;;;;;;;1.1;0.9;;;;;;;30.7;40.95215;939.5021;;;;
2022/07/03 14:12:46;;;;;;;1.1;1;;;;;;;30.65;38.37891;939.5062;;;;
2022/07/03 14:15:15;;;;;;;1.2;0.9;;;;;;;30.67;39.41992;939.4647;;;;
2022/07/03 14:17:46;;;;;;;1.5;1.1;;;;;;;30.78;37.93555;939.4631;;;;
2022/07/03 14:20:11;;;;;;;2.1;1;;;;;;;30.84;40.15234;939.4648;;;;
2022/07/03 14:22:43;;;;;;;1.3;1;;;;;;;30.8;38.0459;939.4377;;;;
2022/07/03 14:25:09;;;;;;;1.1;1;;;;;;;30.79;39.99219;939.4647;;;;
2022/07/03 14:32:33;;;;;;;1.1;1.1;;;;;;;30.72;39.31738;939.405;;;;
2022/07/03 14:34:49;;;;;;;1.3;1;;;;;;;30.8;38.4873;939.3742;;;;
2022/07/03 14:37:18;;;;;;;2;0.7;;;;;;;30.86;37.81055;939.4036;;;;
2022/07/03 14:39:39;;;;;;;2.3;1.2;;;;;;;30.73;38.32617;939.3938;;;;